Aérodrome :
LOGIN :

S'inscrire | Disclaimer

   EN    FR    IT 

 










Légende :    VFR   VFR Marginal   IFR   IFR Intensif   IFR Très Intensif
Visi : 
Plafond : 
>= 8 km
>= 3000ft
5 à 8 km
1000 à 3000 ft
1500m à 5 km
500 à 1000 ft
800 à 1500m
200 à 500 ft
< 800m
< 200 ft
Symboles :   Orages  Brouillard  Fortes neiges  Fortes précipitations  Vent > 20 kt
SIGMETs :   Divers  Orages  Givrage  Turbulence  Onde Orograph.  Cendres Volcan.







- Altitude de l'aérodrome : 144 ft
- Code IATA : PGF
- Voir les cartes d'approche


LFMP - Perpignan

DERNIER METAR :
  • 221600Z AUTO VRB03KT 9999 FEW010 14/12 Q1013 BECMG BKN013 BKN021

METARs EXPIRÉS :
  • 221530Z AUTO 02004KT CAVOK 15/12 Q1013 BECMG BKN013 BKN021
  • 221500Z AUTO 02006KT CAVOK 15/12 Q1013 BECMG BKN013 BKN021
  • 221430Z AUTO 03006KT 9999 BKN013 15/11 Q1013 NOSIG
  • 221400Z AUTO 01005KT 340V040 9999 OVC013 15/10 Q1014 BECMG OVC009
  • 221330Z AUTO 03005KT 340V070 9999 BKN013 BKN021 14/10 Q1014 BECMG OVC009

TAF AMD TAF LFMP
Valide du 22 à 15h jusqu'au 23 à 15h UTC


221533Z 2215/2315 VRB05KT CAVOK
BECMG 2215/2217 BKN013 BKN021
TEMPO 2223/2307 1200 BR VV///
BECMG 2313/2315 CAVOK
ATIS : +33 4 68 63 75 12
Pas de NOTAMs connus pour ce terrain.



MET'MAP, la Météo Aéronautique d'un coup d'oeil ! - Copyright ORBIFLY Décembre 2007 - Disclaimer

ORBIFLY MET'MAP TEAM :

Programmation & Développement : Alexandra Zaïnal
Conception & Développement : Baudouin d'Aumeries
Co-Programmation & Développement : Marc-Olivier Méhu
Soutien technique & logistique : Manuel Goepfert

Contact : metmap@orbifly.com




SOURCES & CREDITS :

   NOAA